Time;durP1;ratioP1;P1;durP2;ratioP2;P2;SDS_P1;SDS_P2;PMS_P1;PMS_P2;Temp;Humidity;BMP_temperature;BMP_pressure;BME280_temperature;BME280_humidity;BME280_pressure;Samples;Min_cycle;Max_cycle;Signal;HPM_P1;HPM_P2
2023/03/19 00:00:27;;;;;;;2.30;1.70;;;;;;;17.54;59.37;100728.72;20848635;28;20052;-82
2023/03/19 00:10:29;;;;;;;1.73;1.30;;;;;;;17.54;59.26;100722.50;20846936;28;20049;-82
2023/03/19 00:20:31;;;;;;;2.20;1.70;;;;;;;17.49;59.38;100717.50;20849370;28;20049;-82
2023/03/19 00:30:32;;;;;;;1.67;1.50;;;;;;;17.54;59.17;100733.25;20866119;28;20057;-82
2023/03/19 00:40:34;;;;;;;1.60;1.50;;;;;;;17.53;59.21;100731.56;20819513;28;20056;-82
2023/03/19 00:50:36;;;;;;;2.22;1.48;;;;;;;17.52;59.28;100730.69;20848874;28;20451;-82
2023/03/19 01:00:38;;;;;;;2.03;1.80;;;;;;;17.49;59.46;100738.22;20855912;28;20059;-82
2023/03/19 01:10:40;;;;;;;2.05;1.60;;;;;;;17.52;59.46;100729.84;20860117;28;20033;-82
2023/03/19 01:20:42;;;;;;;2.25;1.80;;;;;;;17.51;59.39;100734.38;20825067;28;20124;-82
2023/03/19 01:30:44;;;;;;;1.50;1.40;;;;;;;17.51;59.41;100755.91;20836797;28;20057;-82
2023/03/19 01:41:05;;;;;;;1.52;1.42;;;;;;;17.44;59.33;100743.13;20842121;28;20053;-82
2023/03/19 01:51:11;;;;;;;1.30;1.20;;;;;;;17.49;59.46;100736.34;20861836;28;20041;-82
2023/03/19 02:01:35;;;;;;;1.63;1.50;;;;;;;17.50;59.32;100731.84;20844035;28;20087;-80
2023/03/19 02:11:37;;;;;;;2.03;1.43;;;;;;;17.47;59.34;100715.97;20826625;28;20041;-82
2023/03/19 02:21:39;;;;;;;1.70;1.30;;;;;;;17.49;59.44;100713.97;20848625;28;20059;-82
2023/03/19 02:31:41;;;;;;;1.58;1.48;;;;;;;17.47;59.48;100722.19;20858227;28;20045;-82
2023/03/19 02:41:43;;;;;;;1.52;1.40;;;;;;;17.50;59.31;100721.06;20846988;28;20069;-81
2023/03/19 02:51:45;;;;;;;2.10;1.30;;;;;;;17.47;59.38;100727.56;20860509;28;20040;-81
2023/03/19 03:01:46;;;;;;;2.35;1.35;;;;;;;17.48;59.45;100737.34;20858201;28;20055;-82
2023/03/19 03:11:48;;;;;;;1.60;1.20;;;;;;;17.47;59.36;100737.50;20839736;28;20045;-82
2023/03/19 03:21:50;;;;;;;1.33;1.10;;;;;;;17.46;59.43;100731.25;20855151;28;20405;-82
2023/03/19 03:31:52;;;;;;;1.35;1.10;;;;;;;17.47;59.42;100743.72;20872817;28;20501;-82
2023/03/19 03:41:54;;;;;;;1.25;1.02;;;;;;;17.45;59.38;100756.44;20850259;28;20041;-82
2023/03/19 03:51:56;;;;;;;1.73;1.08;;;;;;;17.43;59.34;100753.06;20848989;28;20045;-82
2023/03/19 04:01:58;;;;;;;1.70;1.08;;;;;;;17.47;59.23;100767.09;20831956;28;20060;-83
2023/03/19 04:12:01;;;;;;;1.05;0.95;;;;;;;17.46;59.26;100774.31;20839286;28;20075;-82
2023/03/19 04:22:02;;;;;;;1.15;1.02;;;;;;;17.45;59.29;100764.53;20834377;28;20045;-82
2023/03/19 04:32:06;;;;;;;0.80;0.80;;;;;;;17.45;59.37;100777.97;20840592;28;20068;-82
2023/03/19 04:42:08;;;;;;;1.17;0.93;;;;;;;17.45;59.26;100777.13;20850475;28;20049;-82
2023/03/19 04:52:17;;;;;;;1.10;0.80;;;;;;;17.45;59.37;100777.97;20850525;28;20045;-82
2023/03/19 05:02:19;;;;;;;0.73;0.70;;;;;;;17.44;59.29;100781.66;20836087;28;20048;-82
2023/03/19 05:12:22;;;;;;;1.67;0.73;;;;;;;17.43;59.36;100785.34;20828055;28;20064;-82
2023/03/19 05:22:26;;;;;;;0.98;0.73;;;;;;;17.43;59.26;100796.09;20849035;28;20517;-82
2023/03/19 05:32:29;;;;;;;0.80;0.68;;;;;;;17.43;59.28;100793.41;20823866;28;20041;-82
2023/03/19 05:42:34;;;;;;;;;;;;;;;17.44;59.00;100805.00;20848883;28;20390;-82
2023/03/19 05:52:36;;;;;;;1.00;0.90;;;;;;;17.41;59.18;100808.84;20862566;28;19924;-83
2023/03/19 06:02:38;;;;;;;0.57;0.57;;;;;;;17.41;59.00;100822.31;20839979;28;20038;-82
2023/03/19 06:12:58;;;;;;;0.50;0.50;;;;;;;17.42;59.01;100820.44;20848895;28;20416;-82
2023/03/19 06:23:15;;;;;;;1.05;0.68;;;;;;;17.42;58.97;100829.38;20854098;28;20067;-82
2023/03/19 06:33:17;;;;;;;1.88;0.70;;;;;;;17.42;58.87;100832.09;20858253;28;20045;-82
2023/03/19 06:43:19;;;;;;;0.90;0.70;;;;;;;17.42;58.67;100850.06;20843150;28;20408;-82
2023/03/19 06:53:20;;;;;;;0.60;0.40;;;;;;;17.42;58.79;100852.75;20839751;28;20048;-83
2023/03/19 07:03:22;;;;;;;0.90;0.57;;;;;;;17.42;58.69;100860.81;20846187;28;20068;-83
2023/03/19 07:13:24;;;;;;;0.57;0.57;;;;;;;17.41;58.73;100873.44;20865763;28;20056;-82
2023/03/19 07:23:26;;;;;;;0.73;0.70;;;;;;;17.42;58.67;100880.53;20876793;28;20052;-82
2023/03/19 07:33:28;;;;;;;0.70;0.70;;;;;;;17.44;58.57;100899.22;20818268;28;20064;-82
2023/03/19 07:43:30;;;;;;;1.10;0.60;;;;;;;17.40;58.64;100909.41;20809790;28;20033;-82
2023/03/19 07:53:32;;;;;;;0.60;0.57;;;;;;;17.46;58.74;100919.63;20841338;28;20493;-83
2023/03/19 08:03:33;;;;;;;0.68;0.50;;;;;;;17.47;58.87;100925.88;20847075;28;20129;-82
2023/03/19 08:13:35;;;;;;;0.70;0.70;;;;;;;17.46;58.77;100933.09;20868291;28;20052;-82
2023/03/19 08:23:37;;;;;;;1.05;0.85;;;;;;;17.48;58.76;100949.97;20837422;28;20456;-82
2023/03/19 08:33:39;;;;;;;0.60;0.60;;;;;;;17.52;58.99;100945.19;20865831;28;20037;-83
2023/03/19 08:43:41;;;;;;;1.48;0.95;;;;;;;17.54;59.16;100953.97;20836699;28;20417;-82
2023/03/19 08:53:43;;;;;;;0.80;0.80;;;;;;;17.57;59.30;100966.28;20816017;28;20517;-88
2023/03/19 09:03:44;;;;;;;1.00;0.80;;;;;;;17.58;59.21;100976.94;20848582;28;20505;-82
2023/03/19 09:13:46;;;;;;;0.95;0.95;;;;;;;17.58;59.46;100998.47;20857297;28;20563;-78
2023/03/19 09:23:48;;;;;;;1.90;1.35;;;;;;;17.56;59.77;100996.91;20846964;28;22814;-85
2023/03/19 09:33:50;;;;;;;1.10;0.95;;;;;;;17.56;60.31;101011.22;20821835;28;20497;-85
2023/03/19 09:43:57;;;;;;;1.88;1.00;;;;;;;17.58;60.44;101016.47;20833253;28;20049;-85
2023/03/19 09:54:04;;;;;;;1.52;1.00;;;;;;;17.58;60.55;101030.78;20880692;28;20049;-84
2023/03/19 10:04:28;;;;;;;1.27;1.10;;;;;;;17.59;60.66;101035.19;20828036;28;20045;-85
2023/03/19 10:14:51;;;;;;;1.60;1.13;;;;;;;17.59;60.55;101054.03;20838924;28;20489;-84
2023/03/19 10:24:53;;;;;;;2.03;1.20;;;;;;;17.47;60.68;101034.38;20859372;28;20124;-85
2023/03/19 10:34:58;;;;;;;1.95;1.23;;;;;;;17.44;60.67;101031.97;20871134;28;20047;-85
2023/03/19 10:45:04;;;;;;;1.60;1.20;;;;;;;17.56;60.54;101048.91;20888447;28;20041;-85
2023/03/19 10:55:14;;;;;;;1.20;1.10;;;;;;;17.59;61.00;101066.63;20889603;28;20050;-85
2023/03/19 11:05:25;;;;;;;1.20;1.10;;;;;;;17.61;60.59;101078.13;20872618;28;20041;-85
2023/03/19 11:15:34;;;;;;;1.95;1.10;;;;;;;17.61;60.58;101083.50;20868420;28;20132;-85
2023/03/19 11:25:50;;;;;;;1.20;1.10;;;;;;;17.61;60.51;101083.50;20844700;28;20056;-85
2023/03/19 11:36:12;;;;;;;1.55;1.05;;;;;;;17.60;60.48;101076.41;20865974;28;20048;-85
2023/03/19 11:46:53;;;;;;;2.05;1.48;;;;;;;17.59;60.43;101075.56;20822471;28;20045;-85
2023/03/19 11:57:01;;;;;;;2.53;1.20;;;;;;;17.49;60.28;101053.94;20883426;28;20071;-86
2023/03/19 12:07:31;;;;;;;1.50;1.40;;;;;;;17.60;60.42;101071.03;20822706;28;20080;-85
2023/03/19 12:17:37;;;;;;;1.52;1.40;;;;;;;17.60;60.51;101077.28;20847866;28;20044;-86
2023/03/19 12:27:58;;;;;;;1.27;1.10;;;;;;;17.57;60.42;101082.06;20840635;28;20049;-85
2023/03/19 12:38:17;;;;;;;1.42;1.27;;;;;;;17.61;60.64;101086.19;20819062;28;20052;-86
2023/03/19 12:48:26;;;;;;;1.40;1.10;;;;;;;17.60;60.43;101074.59;20836153;28;20051;-85
2023/03/19 12:58:39;;;;;;;1.52;1.23;;;;;;;17.61;60.78;101075.41;20822759;28;20037;-87
2023/03/19 13:08:51;;;;;;;1.20;1.10;;;;;;;17.56;60.80;101067.75;20837121;28;20501;-86
2023/03/19 13:18:59;;;;;;;1.40;1.17;;;;;;;17.52;60.59;101067.16;20844038;28;20402;-85
2023/03/19 13:29:11;;;;;;;1.70;1.00;;;;;;;17.60;60.93;101087.16;20851131;28;20512;-86
2023/03/19 13:39:19;;;;;;;1.17;1.08;;;;;;;17.59;61.07;101086.34;20811723;28;20455;-86
2023/03/19 13:49:25;;;;;;;1.55;1.40;;;;;;;17.60;61.38;101104.19;20830887;28;20048;-84
2023/03/19 13:59:31;;;;;;;1.45;1.35;;;;;;;17.60;61.19;101106.03;20830464;28;20045;-83
2023/03/19 14:09:42;;;;;;;2.08;1.75;;;;;;;17.59;61.29;101102.50;20849234;28;20068;-83
2023/03/19 14:19:44;;;;;;;2.10;1.70;;;;;;;17.60;61.22;101108.72;20881547;28;20519;-83
2023/03/19 14:29:46;;;;;;;2.28;1.90;;;;;;;17.59;61.42;101113.25;20862786;28;20489;-83
2023/03/19 14:39:53;;;;;;;3.03;2.17;;;;;;;17.55;61.37;101101.03;20861914;28;20052;-83
2023/03/19 14:50:10;;;;;;;3.10;2.28;;;;;;;17.58;61.45;101111.56;20855123;28;20053;-83
2023/03/19 15:00:17;;;;;;;1.98;1.70;;;;;;;17.58;61.33;101116.94;20861522;28;20129;-82
2023/03/19 15:10:21;;;;;;;2.85;2.28;;;;;;;17.58;61.35;101133.09;20863263;28;20114;-83
2023/03/19 15:20:23;;;;;;;2.20;1.90;;;;;;;17.52;61.35;101139.81;20853214;28;20044;-83
2023/03/19 15:30:27;;;;;;;3.08;2.47;;;;;;;17.56;61.39;101145.81;20845132;28;20102;-83
2023/03/19 15:40:30;;;;;;;3.00;2.58;;;;;;;17.56;61.48;101167.34;20861004;28;20071;-83
2023/03/19 15:50:35;;;;;;;4.03;3.40;;;;;;;17.53;61.15;101168.44;20865555;28;20124;-83
2023/03/19 16:00:39;;;;;;;3.63;2.77;;;;;;;17.56;61.27;101170.03;20863442;28;20056;-83
2023/03/19 16:10:44;;;;;;;3.27;2.70;;;;;;;17.53;61.17;101179.22;20823000;28;20128;-83
2023/03/19 16:21:08;;;;;;;3.60;2.88;;;;;;;17.53;60.94;101199.91;20851890;28;20608;-83
2023/03/19 16:31:22;;;;;;;3.80;3.20;;;;;;;17.51;60.83;101213.50;20873219;28;20041;-84
2023/03/19 16:41:25;;;;;;;4.53;3.45;;;;;;;17.49;60.80;101218.16;20879674;28;20049;-87
2023/03/19 16:51:28;;;;;;;3.88;2.75;;;;;;;17.35;60.64;101215.75;20871471;28;20133;-87
2023/03/19 17:01:30;;;;;;;3.53;2.95;;;;;;;17.48;60.58;101246.03;20843601;28;20064;-91
2023/03/19 17:11:35;;;;;;;4.28;3.42;;;;;;;17.48;60.58;101253.28;20819506;28;20637;-84
2023/03/19 17:21:38;;;;;;;4.10;3.17;;;;;;;17.47;60.44;101273.94;20844856;28;20638;-91
2023/03/19 17:31:40;;;;;;;4.55;3.47;;;;;;;17.33;60.18;101260.75;20843613;28;20041;-88
2023/03/19 17:41:42;;;;;;;6.10;3.65;;;;;;;17.46;60.20;101296.47;20843265;28;20049;-85
2023/03/19 17:51:44;;;;;;;4.82;3.80;;;;;;;17.46;60.17;101301.84;20821553;28;21217;-86
2023/03/19 18:01:47;;;;;;;4.07;3.38;;;;;;;17.47;60.38;101324.25;20808506;28;20049;-88
2023/03/19 18:11:49;;;;;;;5.20;3.72;;;;;;;17.35;60.30;101304.53;20808782;28;20452;-86
2023/03/19 18:21:50;;;;;;;5.55;4.43;;;;;;;17.34;60.38;101308.22;20842526;28;20061;-88
2023/03/19 18:31:54;;;;;;;5.55;4.15;;;;;;;17.44;60.32;101333.41;20842096;28;20043;-86
2023/03/19 18:41:55;;;;;;;6.68;4.53;;;;;;;17.43;60.40;101338.91;20838573;28;20045;-88
2023/03/19 18:51:57;;;;;;;6.13;4.50;;;;;;;17.44;60.49;101357.63;20830652;28;20046;-93
2023/03/19 19:02:32;;;;;;;6.00;4.55;;;;;;;17.43;60.51;101366.69;20848406;28;20554;-86
2023/03/19 19:12:34;;;;;;;5.63;4.22;;;;;;;17.26;60.68;101343.78;20853380;28;20063;-89
2023/03/19 19:22:36;;;;;;;5.72;4.10;;;;;;;17.42;60.37;101386.50;20846375;28;20155;-87
2023/03/19 19:32:38;;;;;;;6.15;4.22;;;;;;;17.42;60.38;101386.50;20825546;28;20559;-89
2023/03/19 19:42:40;;;;;;;5.82;4.15;;;;;;;17.29;60.19;101375.84;20848791;28;20041;-89
2023/03/19 19:52:42;;;;;;;6.25;4.25;;;;;;;17.41;60.08;101403.63;20836071;28;20048;-85
2023/03/19 20:02:44;;;;;;;5.30;3.50;;;;;;;17.23;59.84;101387.09;20844303;28;20677;-85
2023/03/19 20:12:50;;;;;;;4.85;3.55;;;;;;;17.40;60.10;101418.06;20880574;28;20051;-84
2023/03/19 20:22:52;;;;;;;4.20;3.58;;;;;;;17.41;59.88;101417.09;20861143;28;20382;-85
2023/03/19 20:32:55;;;;;;;4.10;2.85;;;;;;;17.40;59.77;101428.84;20882288;28;20512;-85
2023/03/19 20:42:57;;;;;;;4.65;3.45;;;;;;;17.40;59.77;101431.53;20884387;28;20117;-85
2023/03/19 20:53:02;;;;;;;3.17;2.70;;;;;;;17.39;59.62;101424.44;20865195;28;20501;-85
2023/03/19 21:03:04;;;;;;;3.15;2.72;;;;;;;17.38;59.30;101423.56;20875079;28;20490;-85
2023/03/19 21:13:08;;;;;;;2.80;2.47;;;;;;;17.38;59.22;101428.09;20856495;28;20043;-86
2023/03/19 21:23:21;;;;;;;3.15;2.30;;;;;;;17.31;59.01;101427.72;20840464;28;20485;-85
2023/03/19 21:33:31;;;;;;;2.28;1.85;;;;;;;17.36;59.02;101456.97;20856929;28;20464;-86
2023/03/19 21:43:48;;;;;;;2.03;1.83;;;;;;;17.19;58.83;101425.97;20878108;28;20489;-86
2023/03/19 21:53:50;;;;;;;2.40;2.10;;;;;;;17.36;58.80;101447.03;20873641;28;20076;-85
2023/03/19 22:03:53;;;;;;;2.15;1.95;;;;;;;17.35;58.79;101455.25;20846133;28;20517;-85
2023/03/19 22:14:01;;;;;;;1.60;1.50;;;;;;;17.35;58.54;101449.88;20858871;28;20037;-85
2023/03/19 22:24:03;;;;;;;2.63;1.80;;;;;;;17.35;58.51;101466.00;20820315;28;20601;-85
2023/03/19 22:34:05;;;;;;;1.92;1.45;;;;;;;17.34;58.37;101464.31;20879718;28;20406;-86
2023/03/19 22:44:19;;;;;;;1.55;1.45;;;;;;;17.33;58.34;101471.50;20876078;28;20858;-85
2023/03/19 22:54:20;;;;;;;2.10;1.85;;;;;;;17.33;58.12;101484.97;20891473;28;20045;-85
2023/03/19 23:04:23;;;;;;;1.55;1.30;;;;;;;17.33;58.16;101484.13;20891818;28;20041;-85
2023/03/19 23:14:26;;;;;;;2.28;1.70;;;;;;;17.27;58.23;101479.22;20887276;28;20072;-85
2023/03/19 23:24:32;;;;;;;1.42;1.33;;;;;;;17.32;58.00;101460.88;20860957;28;20045;-85
2023/03/19 23:34:34;;;;;;;1.85;1.40;;;;;;;17.33;57.96;101476.03;20862490;28;20052;-85
2023/03/19 23:44:58;;;;;;;1.42;1.33;;;;;;;17.31;57.86;101467.22;20861174;28;20041;-85
2023/03/19 23:55:00;;;;;;;1.58;1.48;;;;;;;17.32;57.78;101474.31;20873112;28;20408;-85
